sensor_id;sensor_type;location;lat;lon;timestamp;P1;durP1;ratioP1;P2;durP2;ratioP2
45368;SDS011;51342;55.250;37.668;2022-09-03T00:00:09;3.03;;;1.87;;
45368;SDS011;51342;55.250;37.668;2022-09-03T00:02:47;2.77;;;1.90;;
45368;SDS011;51342;55.250;37.668;2022-09-03T00:08:47;2.97;;;1.97;;
45368;SDS011;51342;55.250;37.668;2022-09-03T00:11:13;3.67;;;1.90;;
45368;SDS011;51342;55.250;37.668;2022-09-03T00:13:53;2.77;;;1.77;;
45368;SDS011;51342;55.250;37.668;2022-09-03T00:16:47;3.37;;;1.93;;
45368;SDS011;51342;55.250;37.668;2022-09-03T00:19:25;3.40;;;1.80;;
45368;SDS011;51342;55.250;37.668;2022-09-03T00:22:02;3.53;;;1.77;;
45368;SDS011;51342;55.250;37.668;2022-09-03T00:24:40;3.60;;;2.17;;
45368;SDS011;51342;55.250;37.668;2022-09-03T00:27:17;2.97;;;1.93;;
45368;SDS011;51342;55.250;37.668;2022-09-03T00:30:00;2.50;;;1.70;;
45368;SDS011;51342;55.250;37.668;2022-09-03T00:32:40;2.80;;;2.17;;
45368;SDS011;51342;55.250;37.668;2022-09-03T00:35:19;2.50;;;1.73;;
45368;SDS011;51342;55.250;37.668;2022-09-03T00:51:23;2.33;;;1.70;;
45368;SDS011;51342;55.250;37.668;2022-09-03T01:00:05;2.57;;;2.10;;
45368;SDS011;51342;55.250;37.668;2022-09-03T01:11:36;3.20;;;2.00;;
45368;SDS011;51342;55.250;37.668;2022-09-03T01:14:21;2.10;;;1.73;;
45368;SDS011;51342;55.250;37.668;2022-09-03T01:17:03;1.97;;;1.50;;
45368;SDS011;51342;55.250;37.668;2022-09-03T01:28:26;3.73;;;2.20;;
45368;SDS011;51342;55.250;37.668;2022-09-03T01:34:09;4.33;;;2.03;;
45368;SDS011;51342;55.250;37.668;2022-09-03T01:39:49;2.40;;;1.80;;
45368;SDS011;51342;55.250;37.668;2022-09-03T01:51:33;2.83;;;1.90;;
45368;SDS011;51342;55.250;37.668;2022-09-03T01:56:48;4.37;;;2.50;;
45368;SDS011;51342;55.250;37.668;2022-09-03T01:59:27;3.33;;;2.10;;
45368;SDS011;51342;55.250;37.668;2022-09-03T02:02:07;2.43;;;2.00;;
45368;SDS011;51342;55.250;37.668;2022-09-03T02:08:01;3.70;;;2.57;;
45368;SDS011;51342;55.250;37.668;2022-09-03T02:13:28;4.40;;;2.40;;
45368;SDS011;51342;55.250;37.668;2022-09-03T02:18:42;4.10;;;2.37;;
45368;SDS011;51342;55.250;37.668;2022-09-03T02:21:17;2.93;;;2.00;;
45368;SDS011;51342;55.250;37.668;2022-09-03T02:23:51;3.90;;;2.20;;
45368;SDS011;51342;55.250;37.668;2022-09-03T02:26:23;4.07;;;2.30;;
45368;SDS011;51342;55.250;37.668;2022-09-03T02:28:55;3.10;;;2.40;;
45368;SDS011;51342;55.250;37.668;2022-09-03T02:31:27;2.90;;;2.17;;
45368;SDS011;51342;55.250;37.668;2022-09-03T02:34:05;4.13;;;2.25;;
45368;SDS011;51342;55.250;37.668;2022-09-03T02:36:37;4.10;;;2.13;;
45368;SDS011;51342;55.250;37.668;2022-09-03T02:39:13;4.57;;;2.13;;
45368;SDS011;51342;55.250;37.668;2022-09-03T02:41:50;3.07;;;2.07;;
45368;SDS011;51342;55.250;37.668;2022-09-03T02:44:29;2.80;;;1.90;;
45368;SDS011;51342;55.250;37.668;2022-09-03T02:47:07;3.70;;;2.30;;
45368;SDS011;51342;55.250;37.668;2022-09-03T02:49:38;3.10;;;2.10;;
45368;SDS011;51342;55.250;37.668;2022-09-03T02:52:10;4.07;;;1.90;;
45368;SDS011;51342;55.250;37.668;2022-09-03T02:54:42;4.90;;;2.20;;
45368;SDS011;51342;55.250;37.668;2022-09-03T02:57:15;3.07;;;2.03;;
45368;SDS011;51342;55.250;37.668;2022-09-03T02:59:47;3.50;;;2.37;;
45368;SDS011;51342;55.250;37.668;2022-09-03T03:02:19;3.50;;;2.37;;
45368;SDS011;51342;55.250;37.668;2022-09-03T03:04:51;3.23;;;2.03;;
45368;SDS011;51342;55.250;37.668;2022-09-03T03:07:22;4.53;;;2.40;;
45368;SDS011;51342;55.250;37.668;2022-09-03T03:09:54;3.07;;;1.90;;
45368;SDS011;51342;55.250;37.668;2022-09-03T03:12:25;2.73;;;1.80;;
45368;SDS011;51342;55.250;37.668;2022-09-03T03:14:57;4.90;;;2.40;;
45368;SDS011;51342;55.250;37.668;2022-09-03T03:17:28;2.70;;;1.80;;
45368;SDS011;51342;55.250;37.668;2022-09-03T03:20:01;3.40;;;2.10;;
45368;SDS011;51342;55.250;37.668;2022-09-03T03:22:32;2.97;;;1.90;;
45368;SDS011;51342;55.250;37.668;2022-09-03T03:25:04;3.23;;;2.00;;
45368;SDS011;51342;55.250;37.668;2022-09-03T03:27:36;2.50;;;1.93;;
45368;SDS011;51342;55.250;37.668;2022-09-03T03:30:09;4.60;;;2.20;;
45368;SDS011;51342;55.250;37.668;2022-09-03T03:32:42;3.30;;;2.30;;
45368;SDS011;51342;55.250;37.668;2022-09-03T03:35:13;3.90;;;1.97;;
45368;SDS011;51342;55.250;37.668;2022-09-03T03:37:45;5.30;;;2.80;;
45368;SDS011;51342;55.250;37.668;2022-09-03T03:40:16;4.37;;;2.33;;
45368;SDS011;51342;55.250;37.668;2022-09-03T03:42:48;3.50;;;2.37;;
45368;SDS011;51342;55.250;37.668;2022-09-03T03:45:20;3.27;;;2.10;;
45368;SDS011;51342;55.250;37.668;2022-09-03T03:47:51;3.77;;;2.30;;
45368;SDS011;51342;55.250;37.668;2022-09-03T03:50:27;4.50;;;2.80;;
45368;SDS011;51342;55.250;37.668;2022-09-03T03:52:58;4.43;;;2.37;;
45368;SDS011;51342;55.250;37.668;2022-09-03T03:55:30;4.87;;;2.50;;
45368;SDS011;51342;55.250;37.668;2022-09-03T03:58:02;4.73;;;3.07;;
45368;SDS011;51342;55.250;37.668;2022-09-03T04:00:33;3.90;;;2.33;;
45368;SDS011;51342;55.250;37.668;2022-09-03T04:03:07;3.10;;;2.30;;
45368;SDS011;51342;55.250;37.668;2022-09-03T04:05:38;3.13;;;2.37;;
45368;SDS011;51342;55.250;37.668;2022-09-03T04:08:10;3.87;;;2.47;;
45368;SDS011;51342;55.250;37.668;2022-09-03T04:10:42;4.03;;;2.33;;
45368;SDS011;51342;55.250;37.668;2022-09-03T04:13:13;3.20;;;2.50;;
45368;SDS011;51342;55.250;37.668;2022-09-03T04:15:45;2.47;;;1.93;;
45368;SDS011;51342;55.250;37.668;2022-09-03T04:18:16;3.10;;;2.17;;
45368;SDS011;51342;55.250;37.668;2022-09-03T04:20:48;2.80;;;2.20;;
45368;SDS011;51342;55.250;37.668;2022-09-03T04:23:19;2.47;;;1.90;;
45368;SDS011;51342;55.250;37.668;2022-09-03T04:25:51;2.90;;;1.93;;
45368;SDS011;51342;55.250;37.668;2022-09-03T04:28:23;4.50;;;2.10;;
45368;SDS011;51342;55.250;37.668;2022-09-03T04:30:59;4.47;;;1.93;;
45368;SDS011;51342;55.250;37.668;2022-09-03T04:33:32;2.53;;;2.00;;
45368;SDS011;51342;55.250;37.668;2022-09-03T04:36:07;2.20;;;1.50;;
45368;SDS011;51342;55.250;37.668;2022-09-03T04:38:40;2.77;;;1.80;;
45368;SDS011;51342;55.250;37.668;2022-09-03T04:41:14;2.40;;;2.03;;
45368;SDS011;51342;55.250;37.668;2022-09-03T04:43:51;2.28;;;1.65;;
45368;SDS011;51342;55.250;37.668;2022-09-03T04:46:24;2.50;;;1.70;;
45368;SDS011;51342;55.250;37.668;2022-09-03T04:48:57;2.50;;;1.63;;
45368;SDS011;51342;55.250;37.668;2022-09-03T04:51:29;3.03;;;1.90;;
45368;SDS011;51342;55.250;37.668;2022-09-03T04:54:01;2.63;;;1.93;;
45368;SDS011;51342;55.250;37.668;2022-09-03T04:56:33;3.90;;;2.13;;
45368;SDS011;51342;55.250;37.668;2022-09-03T04:59:06;2.90;;;2.20;;
45368;SDS011;51342;55.250;37.668;2022-09-03T05:01:39;3.27;;;2.27;;
45368;SDS011;51342;55.250;37.668;2022-09-03T05:04:11;4.03;;;1.87;;
45368;SDS011;51342;55.250;37.668;2022-09-03T05:06:43;2.77;;;2.00;;
45368;SDS011;51342;55.250;37.668;2022-09-03T05:09:15;3.57;;;1.60;;
45368;SDS011;51342;55.250;37.668;2022-09-03T05:11:46;3.37;;;1.70;;
45368;SDS011;51342;55.250;37.668;2022-09-03T05:14:17;3.33;;;1.90;;
45368;SDS011;51342;55.250;37.668;2022-09-03T05:16:49;2.30;;;1.90;;
45368;SDS011;51342;55.250;37.668;2022-09-03T05:19:21;2.37;;;1.90;;
45368;SDS011;51342;55.250;37.668;2022-09-03T05:21:52;2.33;;;1.70;;
45368;SDS011;51342;55.250;37.668;2022-09-03T05:24:23;2.53;;;1.70;;
45368;SDS011;51342;55.250;37.668;2022-09-03T05:26:55;2.63;;;1.60;;
45368;SDS011;51342;55.250;37.668;2022-09-03T05:29:26;3.20;;;1.40;;
45368;SDS011;51342;55.250;37.668;2022-09-03T05:31:58;3.00;;;1.90;;
45368;SDS011;51342;55.250;37.668;2022-09-03T05:34:30;2.90;;;2.20;;
45368;SDS011;51342;55.250;37.668;2022-09-03T05:37:02;2.55;;;1.90;;
45368;SDS011;51342;55.250;37.668;2022-09-03T05:39:33;3.10;;;1.70;;
45368;SDS011;51342;55.250;37.668;2022-09-03T05:42:05;2.25;;;1.60;;
45368;SDS011;51342;55.250;37.668;2022-09-03T05:44:36;2.90;;;1.63;;
45368;SDS011;51342;55.250;37.668;2022-09-03T05:47:08;2.92;;;1.65;;
45368;SDS011;51342;55.250;37.668;2022-09-03T05:49:40;2.17;;;1.48;;
45368;SDS011;51342;55.250;37.668;2022-09-03T05:52:11;2.20;;;1.50;;
45368;SDS011;51342;55.250;37.668;2022-09-03T05:54:43;2.28;;;1.65;;
45368;SDS011;51342;55.250;37.668;2022-09-03T05:57:14;3.40;;;1.55;;
45368;SDS011;51342;55.250;37.668;2022-09-03T05:59:45;2.10;;;1.83;;
45368;SDS011;51342;55.250;37.668;2022-09-03T06:02:17;2.55;;;1.80;;
45368;SDS011;51342;55.250;37.668;2022-09-03T06:04:49;2.30;;;1.50;;
45368;SDS011;51342;55.250;37.668;2022-09-03T06:07:21;2.60;;;1.90;;
45368;SDS011;51342;55.250;37.668;2022-09-03T06:09:52;3.05;;;1.70;;
45368;SDS011;51342;55.250;37.668;2022-09-03T06:12:24;2.28;;;1.70;;
45368;SDS011;51342;55.250;37.668;2022-09-03T06:14:55;5.20;;;1.70;;
45368;SDS011;51342;55.250;37.668;2022-09-03T06:17:27;3.08;;;1.90;;
45368;SDS011;51342;55.250;37.668;2022-09-03T06:19:58;1.60;;;1.42;;
45368;SDS011;51342;55.250;37.668;2022-09-03T06:22:30;4.53;;;1.88;;
45368;SDS011;51342;55.250;37.668;2022-09-03T06:25:01;2.38;;;1.60;;
45368;SDS011;51342;55.250;37.668;2022-09-03T06:27:33;1.85;;;1.25;;
45368;SDS011;51342;55.250;37.668;2022-09-03T06:30:04;2.00;;;1.05;;
45368;SDS011;51342;55.250;37.668;2022-09-03T06:32:46;2.03;;;1.13;;
45368;SDS011;51342;55.250;37.668;2022-09-03T06:35:17;1.60;;;1.20;;
45368;SDS011;51342;55.250;37.668;2022-09-03T06:37:50;1.58;;;1.10;;
45368;SDS011;51342;55.250;37.668;2022-09-03T06:40:22;1.33;;;0.88;;
45368;SDS011;51342;55.250;37.668;2022-09-03T06:42:56;3.13;;;1.10;;
45368;SDS011;51342;55.250;37.668;2022-09-03T06:45:33;1.85;;;1.13;;
45368;SDS011;51342;55.250;37.668;2022-09-03T06:48:04;1.25;;;1.10;;
45368;SDS011;51342;55.250;37.668;2022-09-03T06:50:35;1.23;;;0.93;;
45368;SDS011;51342;55.250;37.668;2022-09-03T06:53:07;1.10;;;0.80;;
45368;SDS011;51342;55.250;37.668;2022-09-03T06:55:39;1.10;;;0.90;;
45368;SDS011;51342;55.250;37.668;2022-09-03T06:58:10;1.30;;;0.77;;
45368;SDS011;51342;55.250;37.668;2022-09-03T07:00:41;2.53;;;0.98;;
45368;SDS011;51342;55.250;37.668;2022-09-03T07:03:14;2.72;;;0.90;;
45368;SDS011;51342;55.250;37.668;2022-09-03T07:05:47;2.08;;;0.60;;
45368;SDS011;51342;55.250;37.668;2022-09-03T07:08:19;0.88;;;0.77;;
45368;SDS011;51342;55.250;37.668;2022-09-03T07:10:50;1.60;;;0.90;;
45368;SDS011;51342;55.250;37.668;2022-09-03T07:13:21;2.00;;;0.80;;
45368;SDS011;51342;55.250;37.668;2022-09-03T07:16:01;1.50;;;0.90;;
45368;SDS011;51342;55.250;37.668;2022-09-03T07:18:34;1.02;;;0.85;;
45368;SDS011;51342;55.250;37.668;2022-09-03T07:21:07;1.10;;;0.68;;
45368;SDS011;51342;55.250;37.668;2022-09-03T07:23:41;1.00;;;0.68;;
45368;SDS011;51342;55.250;37.668;2022-09-03T07:26:13;0.85;;;0.70;;
45368;SDS011;51342;55.250;37.668;2022-09-03T07:28:47;2.72;;;0.80;;
45368;SDS011;51342;55.250;37.668;2022-09-03T07:31:24;0.80;;;0.70;;
45368;SDS011;51342;55.250;37.668;2022-09-03T07:33:57;1.70;;;0.80;;
45368;SDS011;51342;55.250;37.668;2022-09-03T07:36:29;1.58;;;0.70;;
45368;SDS011;51342;55.250;37.668;2022-09-03T07:39:04;0.93;;;0.60;;
45368;SDS011;51342;55.250;37.668;2022-09-03T07:41:35;1.02;;;0.57;;
45368;SDS011;51342;55.250;37.668;2022-09-03T07:44:07;1.83;;;0.63;;
45368;SDS011;51342;55.250;37.668;2022-09-03T07:46:39;1.58;;;0.70;;
45368;SDS011;51342;55.250;37.668;2022-09-03T07:49:11;1.02;;;0.70;;
45368;SDS011;51342;55.250;37.668;2022-09-03T07:51:43;1.05;;;0.70;;
45368;SDS011;51342;55.250;37.668;2022-09-03T07:54:16;1.15;;;0.70;;
45368;SDS011;51342;55.250;37.668;2022-09-03T07:56:49;1.02;;;0.57;;
45368;SDS011;51342;55.250;37.668;2022-09-03T07:59:21;1.05;;;0.63;;
45368;SDS011;51342;55.250;37.668;2022-09-03T08:01:53;2.08;;;0.50;;
45368;SDS011;51342;55.250;37.668;2022-09-03T08:04:25;0.63;;;0.60;;
45368;SDS011;51342;55.250;37.668;2022-09-03T08:06:56;0.80;;;0.70;;
45368;SDS011;51342;55.250;37.668;2022-09-03T08:09:29;0.77;;;0.60;;
45368;SDS011;51342;55.250;37.668;2022-09-03T08:12:02;1.30;;;0.77;;
45368;SDS011;51342;55.250;37.668;2022-09-03T08:14:34;1.38;;;0.70;;
45368;SDS011;51342;55.250;37.668;2022-09-03T08:17:05;1.15;;;0.63;;
45368;SDS011;51342;55.250;37.668;2022-09-03T08:19:38;0.82;;;0.70;;
45368;SDS011;51342;55.250;37.668;2022-09-03T08:22:10;1.17;;;0.60;;
45368;SDS011;51342;55.250;37.668;2022-09-03T08:24:42;0.82;;;0.68;;
45368;SDS011;51342;55.250;37.668;2022-09-03T08:27:15;0.95;;;0.70;;
45368;SDS011;51342;55.250;37.668;2022-09-03T08:29:47;1.25;;;0.80;;
45368;SDS011;51342;55.250;37.668;2022-09-03T08:32:19;0.88;;;0.80;;
45368;SDS011;51342;55.250;37.668;2022-09-03T08:34:53;3.40;;;0.90;;
45368;SDS011;51342;55.250;37.668;2022-09-03T08:37:24;1.00;;;0.70;;
45368;SDS011;51342;55.250;37.668;2022-09-03T08:39:58;2.17;;;0.80;;
45368;SDS011;51342;55.250;37.668;2022-09-03T08:45:17;1.30;;;0.70;;
45368;SDS011;51342;55.250;37.668;2022-09-03T08:47:56;1.58;;;0.52;;
45368;SDS011;51342;55.250;37.668;2022-09-03T08:50:31;1.25;;;0.75;;
45368;SDS011;51342;55.250;37.668;2022-09-03T08:58:17;0.77;;;0.60;;
45368;SDS011;51342;55.250;37.668;2022-09-03T09:20:58;0.63;;;0.50;;
45368;SDS011;51342;55.250;37.668;2022-09-03T09:23:53;1.73;;;0.60;;
45368;SDS011;51342;55.250;37.668;2022-09-03T09:26:31;0.85;;;0.70;;
45368;SDS011;51342;55.250;37.668;2022-09-03T09:29:05;0.98;;;0.60;;
45368;SDS011;51342;55.250;37.668;2022-09-03T09:31:42;2.25;;;1.40;;
45368;SDS011;51342;55.250;37.668;2022-09-03T09:34:14;3.13;;;1.63;;
45368;SDS011;51342;55.250;37.668;2022-09-03T09:36:47;1.77;;;0.95;;
45368;SDS011;51342;55.250;37.668;2022-09-03T09:39:23;2.35;;;0.77;;
45368;SDS011;51342;55.250;37.668;2022-09-03T09:41:59;1.83;;;0.82;;
45368;SDS011;51342;55.250;37.668;2022-09-03T09:44:36;0.70;;;0.60;;
45368;SDS011;51342;55.250;37.668;2022-09-03T09:47:20;1.73;;;0.88;;
45368;SDS011;51342;55.250;37.668;2022-09-03T09:49:55;2.10;;;0.68;;
45368;SDS011;51342;55.250;37.668;2022-09-03T09:52:29;1.17;;;0.80;;
45368;SDS011;51342;55.250;37.668;2022-09-03T09:55:19;1.05;;;0.65;;
45368;SDS011;51342;55.250;37.668;2022-09-03T09:58:03;2.03;;;0.80;;
45368;SDS011;51342;55.250;37.668;2022-09-03T10:00:37;0.88;;;0.60;;
45368;SDS011;51342;55.250;37.668;2022-09-03T10:03:09;1.60;;;0.82;;
45368;SDS011;51342;55.250;37.668;2022-09-03T10:05:43;1.08;;;0.70;;
45368;SDS011;51342;55.250;37.668;2022-09-03T10:08:52;1.25;;;0.50;;
45368;SDS011;51342;55.250;37.668;2022-09-03T10:11:36;0.80;;;0.60;;
45368;SDS011;51342;55.250;37.668;2022-09-03T10:14:45;0.52;;;0.50;;
45368;SDS011;51342;55.250;37.668;2022-09-03T10:17:34;0.80;;;0.60;;
45368;SDS011;51342;55.250;37.668;2022-09-03T10:23:07;0.55;;;0.50;;
45368;SDS011;51342;55.250;37.668;2022-09-03T10:28:28;1.67;;;0.50;;
45368;SDS011;51342;55.250;37.668;2022-09-03T10:36:38;0.40;;;0.40;;
45368;SDS011;51342;55.250;37.668;2022-09-03T10:50:22;1.75;;;0.50;;
45368;SDS011;51342;55.250;37.668;2022-09-03T10:56:51;1.50;;;0.50;;
45368;SDS011;51342;55.250;37.668;2022-09-03T11:02:56;3.10;;;0.50;;
45368;SDS011;51342;55.250;37.668;2022-09-03T11:08:37;1.25;;;0.63;;
45368;SDS011;51342;55.250;37.668;2022-09-03T11:11:35;1.52;;;0.60;;
45368;SDS011;51342;55.250;37.668;2022-09-03T11:14:14;1.50;;;0.70;;
45368;SDS011;51342;55.250;37.668;2022-09-03T11:17:08;1.05;;;0.50;;
45368;SDS011;51342;55.250;37.668;2022-09-03T11:20:05;1.63;;;0.70;;
45368;SDS011;51342;55.250;37.668;2022-09-03T11:22:47;1.13;;;0.57;;
45368;SDS011;51342;55.250;37.668;2022-09-03T11:25:21;1.02;;;0.68;;
45368;SDS011;51342;55.250;37.668;2022-09-03T11:34:07;1.42;;;0.80;;
45368;SDS011;51342;55.250;37.668;2022-09-03T11:36:49;1.05;;;0.50;;
45368;SDS011;51342;55.250;37.668;2022-09-03T11:39:21;0.77;;;0.38;;
45368;SDS011;51342;55.250;37.668;2022-09-03T11:42:08;1.55;;;0.52;;
45368;SDS011;51342;55.250;37.668;2022-09-03T11:44:42;1.10;;;0.70;;
45368;SDS011;51342;55.250;37.668;2022-09-03T11:47:19;0.85;;;0.50;;
45368;SDS011;51342;55.250;37.668;2022-09-03T11:50:06;1.48;;;0.70;;
45368;SDS011;51342;55.250;37.668;2022-09-03T11:52:50;0.52;;;0.50;;
45368;SDS011;51342;55.250;37.668;2022-09-03T11:55:28;0.82;;;0.60;;
45368;SDS011;51342;55.250;37.668;2022-09-03T11:58:11;0.77;;;0.43;;
45368;SDS011;51342;55.250;37.668;2022-09-03T12:00:50;1.00;;;0.63;;
45368;SDS011;51342;55.250;37.668;2022-09-03T12:03:28;0.75;;;0.43;;
45368;SDS011;51342;55.250;37.668;2022-09-03T12:06:18;1.75;;;0.75;;
45368;SDS011;51342;55.250;37.668;2022-09-03T12:08:57;1.58;;;0.50;;
45368;SDS011;51342;55.250;37.668;2022-09-03T12:11:40;1.33;;;0.68;;
45368;SDS011;51342;55.250;37.668;2022-09-03T12:14:38;1.23;;;0.57;;
45368;SDS011;51342;55.250;37.668;2022-09-03T12:20:13;0.65;;;0.43;;
45368;SDS011;51342;55.250;37.668;2022-09-03T12:22:47;0.73;;;0.50;;
45368;SDS011;51342;55.250;37.668;2022-09-03T12:25:18;1.70;;;0.50;;
45368;SDS011;51342;55.250;37.668;2022-09-03T12:27:50;0.90;;;0.60;;
45368;SDS011;51342;55.250;37.668;2022-09-03T12:30:22;1.60;;;0.60;;
45368;SDS011;51342;55.250;37.668;2022-09-03T12:33:04;0.98;;;0.57;;
45368;SDS011;51342;55.250;37.668;2022-09-03T12:35:37;1.17;;;0.60;;
45368;SDS011;51342;55.250;37.668;2022-09-03T12:38:11;1.00;;;0.55;;
45368;SDS011;51342;55.250;37.668;2022-09-03T12:40:43;0.90;;;0.50;;
45368;SDS011;51342;55.250;37.668;2022-09-03T12:43:15;0.85;;;0.50;;
45368;SDS011;51342;55.250;37.668;2022-09-03T12:45:48;1.60;;;0.68;;
45368;SDS011;51342;55.250;37.668;2022-09-03T12:48:24;1.83;;;0.80;;
45368;SDS011;51342;55.250;37.668;2022-09-03T12:51:02;1.00;;;0.60;;
45368;SDS011;51342;55.250;37.668;2022-09-03T12:53:34;1.00;;;0.50;;
45368;SDS011;51342;55.250;37.668;2022-09-03T12:56:05;1.02;;;0.60;;
45368;SDS011;51342;55.250;37.668;2022-09-03T12:58:50;0.82;;;0.50;;
45368;SDS011;51342;55.250;37.668;2022-09-03T13:01:28;1.55;;;0.80;;
45368;SDS011;51342;55.250;37.668;2022-09-03T13:04:13;1.30;;;0.80;;
45368;SDS011;51342;55.250;37.668;2022-09-03T13:06:55;1.42;;;0.68;;
45368;SDS011;51342;55.250;37.668;2022-09-03T13:09:34;1.42;;;0.90;;
45368;SDS011;51342;55.250;37.668;2022-09-03T13:12:57;1.58;;;0.88;;
45368;SDS011;51342;55.250;37.668;2022-09-03T13:15:20;1.85;;;0.85;;
45368;SDS011;51342;55.250;37.668;2022-09-03T13:17:56;1.85;;;0.80;;
45368;SDS011;51342;55.250;37.668;2022-09-03T13:23:33;1.13;;;0.80;;
45368;SDS011;51342;55.250;37.668;2022-09-03T13:26:30;2.13;;;1.13;;
45368;SDS011;51342;55.250;37.668;2022-09-03T13:43:25;1.73;;;1.00;;
45368;SDS011;51342;55.250;37.668;2022-09-03T13:46:01;1.67;;;1.23;;
45368;SDS011;51342;55.250;37.668;2022-09-03T13:48:38;2.28;;;1.00;;
45368;SDS011;51342;55.250;37.668;2022-09-03T13:51:31;2.90;;;0.98;;
45368;SDS011;51342;55.250;37.668;2022-09-03T13:54:23;2.70;;;1.02;;
45368;SDS011;51342;55.250;37.668;2022-09-03T14:00:10;2.05;;;0.98;;
45368;SDS011;51342;55.250;37.668;2022-09-03T14:02:51;1.80;;;0.90;;
45368;SDS011;51342;55.250;37.668;2022-09-03T14:11:08;2.70;;;1.00;;
45368;SDS011;51342;55.250;37.668;2022-09-03T14:13:59;2.30;;;1.00;;
45368;SDS011;51342;55.250;37.668;2022-09-03T14:19:13;2.75;;;1.00;;
45368;SDS011;51342;55.250;37.668;2022-09-03T14:21:50;1.40;;;1.10;;
45368;SDS011;51342;55.250;37.668;2022-09-03T14:27:21;1.63;;;1.05;;
45368;SDS011;51342;55.250;37.668;2022-09-03T14:30:01;1.88;;;1.00;;
45368;SDS011;51342;55.250;37.668;2022-09-03T14:38:12;3.28;;;1.25;;
45368;SDS011;51342;55.250;37.668;2022-09-03T14:46:38;2.38;;;2.00;;
45368;SDS011;51342;55.250;37.668;2022-09-03T14:55:30;3.20;;;2.08;;
45368;SDS011;51342;55.250;37.668;2022-09-03T14:58:34;3.83;;;2.03;;
45368;SDS011;51342;55.250;37.668;2022-09-03T15:01:51;2.33;;;1.58;;
45368;SDS011;51342;55.250;37.668;2022-09-03T15:10:11;2.97;;;1.60;;
45368;SDS011;51342;55.250;37.668;2022-09-03T15:12:47;3.67;;;1.95;;
45368;SDS011;51342;55.250;37.668;2022-09-03T15:15:29;3.25;;;1.90;;
45368;SDS011;51342;55.250;37.668;2022-09-03T15:18:29;3.28;;;1.92;;
45368;SDS011;51342;55.250;37.668;2022-09-03T15:21:31;3.00;;;2.25;;
45368;SDS011;51342;55.250;37.668;2022-09-03T15:29:40;4.72;;;2.40;;
45368;SDS011;51342;55.250;37.668;2022-09-03T15:32:31;3.35;;;2.13;;
45368;SDS011;51342;55.250;37.668;2022-09-03T15:38:23;3.90;;;2.25;;
45368;SDS011;51342;55.250;37.668;2022-09-03T15:41:04;5.13;;;1.60;;
45368;SDS011;51342;55.250;37.668;2022-09-03T15:43:59;3.22;;;1.90;;
45368;SDS011;51342;55.250;37.668;2022-09-03T15:49:07;2.38;;;1.60;;
45368;SDS011;51342;55.250;37.668;2022-09-03T16:00:18;2.90;;;1.80;;
45368;SDS011;51342;55.250;37.668;2022-09-03T16:11:36;2.40;;;1.58;;
45368;SDS011;51342;55.250;37.668;2022-09-03T16:14:16;3.00;;;1.80;;
45368;SDS011;51342;55.250;37.668;2022-09-03T16:17:04;2.63;;;1.63;;
45368;SDS011;51342;55.250;37.668;2022-09-03T16:19:51;4.57;;;2.08;;
45368;SDS011;51342;55.250;37.668;2022-09-03T16:22:37;4.80;;;2.25;;
45368;SDS011;51342;55.250;37.668;2022-09-03T16:28:26;5.05;;;3.65;;
45368;SDS011;51342;55.250;37.668;2022-09-03T16:36:58;5.05;;;3.30;;
45368;SDS011;51342;55.250;37.668;2022-09-03T16:39:51;3.97;;;2.97;;
45368;SDS011;51342;55.250;37.668;2022-09-03T16:45:26;4.45;;;3.25;;
45368;SDS011;51342;55.250;37.668;2022-09-03T16:48:18;4.35;;;2.80;;
45368;SDS011;51342;55.250;37.668;2022-09-03T16:51:15;10.25;;;5.55;;
45368;SDS011;51342;55.250;37.668;2022-09-03T16:54:08;102.65;;;41.97;;
45368;SDS011;51342;55.250;37.668;2022-09-03T16:57:16;129.85;;;55.00;;
45368;SDS011;51342;55.250;37.668;2022-09-03T17:03:00;30.50;;;15.75;;
45368;SDS011;51342;55.250;37.668;2022-09-03T17:06:14;28.27;;;15.88;;
45368;SDS011;51342;55.250;37.668;2022-09-03T17:14:58;230.93;;;131.20;;
45368;SDS011;51342;55.250;37.668;2022-09-03T17:17:46;187.57;;;105.60;;
45368;SDS011;51342;55.250;37.668;2022-09-03T17:35:28;139.27;;;75.43;;
45368;SDS011;51342;55.250;37.668;2022-09-03T17:40:40;30.58;;;16.50;;
45368;SDS011;51342;55.250;37.668;2022-09-03T17:43:39;31.40;;;18.75;;
45368;SDS011;51342;55.250;37.668;2022-09-03T17:46:44;40.97;;;26.38;;
45368;SDS011;51342;55.250;37.668;2022-09-03T17:49:26;41.22;;;25.10;;
45368;SDS011;51342;55.250;37.668;2022-09-03T17:52:04;17.63;;;14.30;;
45368;SDS011;51342;55.250;37.668;2022-09-03T17:54:46;16.33;;;11.90;;
45368;SDS011;51342;55.250;37.668;2022-09-03T17:57:23;13.68;;;10.98;;
45368;SDS011;51342;55.250;37.668;2022-09-03T18:00:07;10.90;;;9.50;;
45368;SDS011;51342;55.250;37.668;2022-09-03T18:02:42;10.98;;;9.60;;
45368;SDS011;51342;55.250;37.668;2022-09-03T18:05:23;9.00;;;7.75;;
45368;SDS011;51342;55.250;37.668;2022-09-03T18:11:06;11.65;;;7.85;;
45368;SDS011;51342;55.250;37.668;2022-09-03T18:13:49;8.75;;;6.93;;
45368;SDS011;51342;55.250;37.668;2022-09-03T18:16:31;7.93;;;6.45;;
45368;SDS011;51342;55.250;37.668;2022-09-03T18:22:43;9.88;;;6.63;;
45368;SDS011;51342;55.250;37.668;2022-09-03T18:25:39;11.23;;;7.97;;
45368;SDS011;51342;55.250;37.668;2022-09-03T18:28:40;13.80;;;10.17;;
45368;SDS011;51342;55.250;37.668;2022-09-03T18:31:35;20.40;;;13.60;;
45368;SDS011;51342;55.250;37.668;2022-09-03T18:34:31;22.37;;;15.67;;
45368;SDS011;51342;55.250;37.668;2022-09-03T18:37:26;19.17;;;13.20;;
45368;SDS011;51342;55.250;37.668;2022-09-03T18:40:17;22.52;;;15.45;;
45368;SDS011;51342;55.250;37.668;2022-09-03T18:43:20;22.25;;;15.18;;
45368;SDS011;51342;55.250;37.668;2022-09-03T18:47:07;21.80;;;15.10;;
45368;SDS011;51342;55.250;37.668;2022-09-03T18:56:00;21.43;;;14.53;;
45368;SDS011;51342;55.250;37.668;2022-09-03T19:15:22;14.17;;;10.73;;
45368;SDS011;51342;55.250;37.668;2022-09-03T19:21:44;17.77;;;11.57;;
45368;SDS011;51342;55.250;37.668;2022-09-03T19:24:39;17.38;;;10.98;;
45368;SDS011;51342;55.250;37.668;2022-09-03T19:33:58;10.67;;;7.80;;
45368;SDS011;51342;55.250;37.668;2022-09-03T19:44:14;15.57;;;9.03;;
45368;SDS011;51342;55.250;37.668;2022-09-03T19:52:38;11.57;;;6.97;;
45368;SDS011;51342;55.250;37.668;2022-09-03T19:55:35;12.53;;;7.97;;
45368;SDS011;51342;55.250;37.668;2022-09-03T19:58:31;9.55;;;6.85;;
45368;SDS011;51342;55.250;37.668;2022-09-03T20:01:23;10.43;;;6.77;;
45368;SDS011;51342;55.250;37.668;2022-09-03T20:04:31;13.03;;;7.30;;
45368;SDS011;51342;55.250;37.668;2022-09-03T20:07:24;10.40;;;7.27;;
45368;SDS011;51342;55.250;37.668;2022-09-03T20:10:15;10.17;;;7.70;;
45368;SDS011;51342;55.250;37.668;2022-09-03T20:15:52;9.07;;;6.53;;
45368;SDS011;51342;55.250;37.668;2022-09-03T20:18:48;9.83;;;7.47;;
45368;SDS011;51342;55.250;37.668;2022-09-03T20:22:07;10.30;;;7.40;;
45368;SDS011;51342;55.250;37.668;2022-09-03T20:27:51;9.70;;;7.15;;
45368;SDS011;51342;55.250;37.668;2022-09-03T20:30:40;10.00;;;6.40;;
45368;SDS011;51342;55.250;37.668;2022-09-03T20:47:39;11.77;;;8.13;;
45368;SDS011;51342;55.250;37.668;2022-09-03T20:54:31;11.00;;;7.53;;
45368;SDS011;51342;55.250;37.668;2022-09-03T20:59:51;9.60;;;6.90;;
45368;SDS011;51342;55.250;37.668;2022-09-03T21:02:54;9.60;;;6.80;;
45368;SDS011;51342;55.250;37.668;2022-09-03T21:25:54;7.90;;;4.77;;
45368;SDS011;51342;55.250;37.668;2022-09-03T21:28:36;7.60;;;5.17;;
45368;SDS011;51342;55.250;37.668;2022-09-03T21:31:32;8.97;;;5.00;;
45368;SDS011;51342;55.250;37.668;2022-09-03T21:34:10;6.83;;;4.80;;
45368;SDS011;51342;55.250;37.668;2022-09-03T21:36:48;8.63;;;5.13;;